Fremont, MI

5:02 PM EST on December 08, 2019 (GMT -0500)
Fremont

Weather History for KFFX - August, 2019

Change the Weather History Date:

Sunday, August 25, 2019

  Actual Average (KMKG) Record (KMKG)
Temperature  
Mean Temperature 64 °F -  
Max Temperature 76 °F 77 °F 90 °F (1948)
Min Temperature 53 °F 57 °F 43 °F (1977)
Growing Degree Days 14 (Base 50)    
Moisture  
Dew Point 53 °F    
Average Humidity 67    
Maximum Humidity 100    
Minimum Humidity 42    
Precipitation  
Precipitation 0.00 in - - ()
Sea Level Pressure  
Sea Level Pressure 30.17 in    
Wind  
Wind Speed 6 mph ()    
Max Wind Speed 14 mph    
Max Gust Speed 21 mph    
Visibility 10.0 miles    
Events      
Averages and records for this station are not official NWS values.
T = Trace of Precipitation, MM = Missing Value Source: Averaged Metar Reports

Daily Weather History Graph

Daily Weather History Graph

Search for Another Location

Airport or City:

Astronomy

Aug. 25, 2019 Rise Set
Actual Time 6:59 AM EDT 8:31 PM EDT
Civil Twilight 6:29 AM EDT 9:01 PM EDT
Nautical Twilight 5:53 AM EDT 9:37 PM EDT
Astronomical Twilight 5:14 AM EDT 10:16 PM EDT
Moon 1:29 AM EDT (8/25) 4:57 PM EDT (8/25)
Length of Visible Light 14h 31m
Length of Day
13h 31m
Waning Crescent, 29% of the Moon is Illuminated
Aug 25
Waning Crescent
Aug 30
New
Sep 5
First Quarter
Sep 14
Full
Sep 21
Last Quarter

Hourly Weather History & Observations

Time (EDT) Temp. Dew Point Humidity Pressure Visibility Wind Dir Wind Speed Gust Speed Precip Events Conditions
12:15 AM 60.1 °F 51.3 °F 73% 30.25 in 10.0 mi East 4.6 mph - N/A   Clear
12:35 AM 59.7 °F 51.4 °F 74% 30.25 in 10.0 mi East 9.2 mph - N/A   Clear
12:59 AM 59.2 °F 51.4 °F 75% 30.25 in 10.0 mi East 5.8 mph - N/A   Clear
1:17 AM 58.8 °F 51.3 °F 76% 30.24 in 10.0 mi ESE 4.6 mph - N/A   Clear
1:35 AM 58.3 °F 51.1 °F 77% 30.24 in 10.0 mi ESE 4.6 mph - N/A   Clear
1:55 AM 57.7 °F 51.1 °F 78% 30.25 in 10.0 mi ESE 4.6 mph - N/A   Clear
2:15 AM 57.2 °F 50.9 °F 79% 30.24 in 10.0 mi ESE 4.6 mph - N/A   Clear
2:37 AM 56.5 °F 51.1 °F 82% 30.25 in 10.0 mi East 3.5 mph - N/A   Clear
2:56 AM 56.3 °F 52.5 °F 87% 30.24 in 10.0 mi East 4.6 mph - N/A   Clear
3:15 AM 55.9 °F 52.9 °F 89% 30.24 in 10.0 mi East 4.6 mph - N/A   Clear
3:16 AM 55.9 °F 52.9 °F 89% 30.24 in 10.0 mi East 4.6 mph - N/A   Clear
3:35 AM 55.8 °F 53.1 °F 91% 30.23 in 10.0 mi ESE 3.5 mph - N/A   Clear
3:36 AM 55.8 °F 53.1 °F 91% 30.23 in 10.0 mi ESE 3.5 mph - N/A   Clear
4:17 AM 55.4 °F 53.6 °F 94% 30.23 in 10.0 mi East 4.6 mph - N/A   Clear
4:35 AM 55.0 °F 53.6 °F 95% 30.22 in 10.0 mi East 3.5 mph - N/A   Clear
4:55 AM 54.7 °F 53.6 °F 96% 30.22 in 10.0 mi ESE 3.5 mph - N/A   Clear
5:15 AM 54.5 °F 53.6 °F 97% 30.22 in 10.0 mi East 3.5 mph - N/A   Clear
5:20 AM 54.5 °F 53.6 °F 97% 30.22 in 10.0 mi East 3.5 mph - N/A   Clear
5:38 AM 54.0 °F 53.4 °F 98% 30.22 in 10.0 mi Calm Calm - N/A   Clear
5:56 AM 54.1 °F 53.6 °F 98% 30.23 in 10.0 mi Calm Calm - N/A   Clear
6:15 AM 54.0 °F 53.8 °F 99% 30.23 in 10.0 mi Calm Calm - N/A   Clear
6:16 AM 54.0 °F 53.8 °F 99% 30.23 in 10.0 mi Calm Calm - N/A   Clear
6:36 AM 53.6 °F 53.6 °F 100% 30.23 in 10.0 mi East 3.5 mph - N/A   Clear
6:59 AM 53.6 °F 53.6 °F 100% 30.23 in 10.0 mi East 3.5 mph - N/A   Scattered Clouds
7:17 AM 54.0 °F 54.0 °F 100% 30.23 in 10.0 mi East 3.5 mph - N/A   Scattered Clouds
7:36 AM 54.5 °F 54.5 °F 100% 30.23 in 10.0 mi East 3.5 mph - N/A   Mostly Cloudy
7:55 AM 55.4 °F 55.0 °F 99% 30.23 in 10.0 mi East 3.5 mph - N/A   Mostly Cloudy
8:15 AM 57.0 °F 56.1 °F 97% 30.24 in 10.0 mi ESE 3.5 mph - N/A   Scattered Clouds
8:38 AM 59.0 °F 56.8 °F 93% 30.24 in 10.0 mi East 4.6 mph - N/A   Clear
8:55 AM 60.1 °F 55.8 °F 86% 30.23 in 10.0 mi East 6.9 mph - N/A   Clear
9:15 AM 61.7 °F 54.7 °F 78% 30.23 in 10.0 mi ESE 8.1 mph - N/A   Clear
9:16 AM 61.9 °F 54.7 °F 77% 30.23 in 10.0 mi ESE 9.2 mph - N/A   Clear
9:35 AM 63.3 °F 54.3 °F 72% 30.23 in 10.0 mi ESE 9.2 mph - N/A   Clear
9:36 AM 63.3 °F 54.3 °F 72% 30.23 in 10.0 mi ESE 9.2 mph - N/A   Clear
9:59 AM 65.7 °F 54.5 °F 67% 30.23 in 10.0 mi East 5.8 mph - N/A   Clear
10:35 AM 68.5 °F 54.3 °F 60% 30.22 in 10.0 mi SE 6.9 mph - N/A   Clear
10:55 AM 69.4 °F 53.8 °F 57% 30.22 in 10.0 mi SE 9.2 mph - N/A   Clear
10:56 AM 69.3 °F 53.6 °F 57% 30.22 in 10.0 mi SE 8.1 mph - N/A   Clear
11:15 AM 70.2 °F 53.1 °F 55% 30.22 in 10.0 mi SE 10.4 mph 18.4 mph N/A   Clear
11:37 AM 70.3 °F 53.1 °F 54% 30.21 in 10.0 mi SE 10.4 mph - N/A   Scattered Clouds
11:56 AM 70.9 °F 52.5 °F 52% 30.20 in 10.0 mi SE 10.4 mph - N/A   Scattered Clouds
12:15 PM 70.7 °F 52.5 °F 52% 30.20 in 10.0 mi ESE 8.1 mph - N/A   Mostly Cloudy
12:16 PM 70.7 °F 52.7 °F 53% 30.20 in 10.0 mi ESE 6.9 mph - N/A   Mostly Cloudy
12:35 PM 72.5 °F 52.2 °F 49% 30.19 in 10.0 mi SE 8.1 mph 16.1 mph N/A   Mostly Cloudy
12:59 PM 71.8 °F 52.2 °F 50% 30.18 in 10.0 mi SE 9.2 mph 18.4 mph N/A   Mostly Cloudy
1:17 PM 72.9 °F 52.2 °F 48% 30.17 in 10.0 mi SE 11.5 mph 16.1 mph N/A   Mostly Cloudy
1:35 PM 72.9 °F 51.6 °F 47% 30.17 in 10.0 mi SE 9.2 mph 17.3 mph N/A   Mostly Cloudy
1:36 PM 72.9 °F 51.4 °F 47% 30.16 in 10.0 mi SE 9.2 mph - N/A   Mostly Cloudy
1:55 PM 75.0 °F 51.6 °F 44% 30.16 in 10.0 mi ESE 13.8 mph 18.4 mph N/A   Scattered Clouds
1:56 PM 75.0 °F 51.4 °F 44% 30.16 in 10.0 mi SE 12.7 mph 18.4 mph N/A   Scattered Clouds
2:15 PM 74.7 °F 50.9 °F 43% 30.16 in 10.0 mi ESE 9.2 mph - N/A   Scattered Clouds
2:20 PM 74.5 °F 51.1 °F 44% 30.15 in 10.0 mi East 10.4 mph 17.3 mph N/A   Mostly Cloudy
2:38 PM 74.5 °F 51.4 °F 44% 30.15 in 10.0 mi East 10.4 mph - N/A   Mostly Cloudy
2:56 PM 76.5 °F 51.6 °F 42% 30.14 in 10.0 mi East 8.1 mph 16.1 mph N/A   Mostly Cloudy
3:15 PM 74.7 °F 51.4 °F 44% 30.14 in 10.0 mi SE 10.4 mph - N/A   Scattered Clouds
3:35 PM 75.4 °F 51.6 °F 43% 30.12 in 10.0 mi ESE 6.9 mph - N/A   Scattered Clouds
3:36 PM 75.6 °F 51.6 °F 43% 30.12 in 10.0 mi East 9.2 mph - N/A   Scattered Clouds
3:59 PM 75.0 °F 51.1 °F 43% 30.11 in 10.0 mi ESE 11.5 mph 19.6 mph N/A   Mostly Cloudy
4:17 PM 75.7 °F 51.3 °F 42% 30.11 in 10.0 mi SE 8.1 mph 17.3 mph N/A   Scattered Clouds
4:35 PM 75.2 °F 51.1 °F 43% 30.10 in 10.0 mi SE 10.4 mph 16.1 mph N/A   Scattered Clouds
4:55 PM 75.7 °F 50.9 °F 42% 30.09 in 10.0 mi SE 11.5 mph 20.7 mph N/A   Scattered Clouds
5:15 PM 75.6 °F 50.9 °F 42% 30.09 in 10.0 mi SE 12.7 mph 18.4 mph N/A   Scattered Clouds
5:38 PM 74.5 °F 51.3 °F 44% 30.08 in 10.0 mi SE 11.5 mph - N/A   Mostly Cloudy
5:56 PM 75.2 °F 51.4 °F 43% 30.08 in 10.0 mi ESE 11.5 mph 18.4 mph N/A   Mostly Cloudy
6:15 PM 74.1 °F 52.0 °F 46% 30.08 in 10.0 mi ESE 8.1 mph 17.3 mph N/A   Mostly Cloudy
6:16 PM 74.3 °F 52.0 °F 46% 30.08 in 10.0 mi ESE 6.9 mph 17.3 mph N/A   Mostly Cloudy
6:35 PM 73.0 °F 52.2 °F 48% 30.08 in 10.0 mi ESE 6.9 mph - N/A   Scattered Clouds
6:59 PM 73.6 °F 51.3 °F 45% 30.07 in 10.0 mi ESE 10.4 mph 16.1 mph N/A   Scattered Clouds
7:17 PM 71.6 °F 52.7 °F 51% 30.07 in 10.0 mi ESE 9.2 mph - N/A   Scattered Clouds
7:35 PM 71.2 °F 52.5 °F 52% 30.06 in 10.0 mi ESE 8.1 mph - N/A   Clear
7:36 PM 71.2 °F 52.7 °F 52% 30.06 in 10.0 mi ESE 6.9 mph - N/A   Clear
7:55 PM 70.2 °F 52.9 °F 54% 30.06 in 10.0 mi ESE 5.8 mph - N/A   Clear
8:15 PM 69.4 °F 53.1 °F 56% 30.06 in 10.0 mi ESE 5.8 mph - N/A   Clear
8:38 PM 68.5 °F 53.6 °F 59% 30.07 in 10.0 mi ESE 3.5 mph - N/A   Mostly Cloudy
8:56 PM 68.0 °F 53.6 °F 60% 30.06 in 10.0 mi East 3.5 mph - N/A   Mostly Cloudy
9:36 PM 67.1 °F 53.8 °F 62% 30.07 in 10.0 mi East 3.5 mph - N/A   Mostly Cloudy
9:59 PM 66.2 °F 53.8 °F 64% 30.07 in 10.0 mi ESE 4.6 mph - N/A   Scattered Clouds
10:17 PM 65.5 °F 54.0 °F 66% 30.07 in 10.0 mi ESE 3.5 mph - N/A   Scattered Clouds
10:35 PM 64.4 °F 53.8 °F 68% 30.06 in 10.0 mi Calm Calm - N/A   Scattered Clouds
10:55 PM 63.9 °F 54.1 °F 71% 30.07 in 10.0 mi ESE 3.5 mph - N/A   Clear
11:15 PM 63.1 °F 54.1 °F 72% 30.07 in 10.0 mi ESE 4.6 mph - N/A   Clear
11:38 PM 63.1 °F 54.0 °F 72% 30.06 in 10.0 mi ESE 5.8 mph - N/A   Clear
11:56 PM 63.0 °F 53.6 °F 71% 30.06 in 10.0 mi SE 4.6 mph - N/A   Clear